sensor_id;sensor_type;location;lat;lon;timestamp;temperature;humidity
55771;DHT22;41687;-33.234;-60.334;2023-07-20T00:00:43;9.00;92.90
55771;DHT22;41687;-33.234;-60.334;2023-07-20T00:03:13;8.90;93.30
55771;DHT22;41687;-33.234;-60.334;2023-07-20T00:05:46;8.90;93.20
55771;DHT22;41687;-33.234;-60.334;2023-07-20T00:08:14;9.00;93.40
55771;DHT22;41687;-33.234;-60.334;2023-07-20T00:10:42;9.00;93.40
55771;DHT22;41687;-33.234;-60.334;2023-07-20T00:13:10;8.90;93.30
55771;DHT22;41687;-33.234;-60.334;2023-07-20T00:15:38;8.90;93.20
55771;DHT22;41687;-33.234;-60.334;2023-07-20T00:18:06;8.90;93.20
55771;DHT22;41687;-33.234;-60.334;2023-07-20T00:20:34;8.90;93.30
55771;DHT22;41687;-33.234;-60.334;2023-07-20T00:23:02;8.90;93.50
55771;DHT22;41687;-33.234;-60.334;2023-07-20T00:25:29;9.00;93.40
55771;DHT22;41687;-33.234;-60.334;2023-07-20T00:27:57;8.90;93.60
55771;DHT22;41687;-33.234;-60.334;2023-07-20T00:30:25;8.90;93.80
55771;DHT22;41687;-33.234;-60.334;2023-07-20T00:32:52;8.90;93.40
55771;DHT22;41687;-33.234;-60.334;2023-07-20T00:35:22;8.90;93.40
55771;DHT22;41687;-33.234;-60.334;2023-07-20T00:37:50;8.90;93.30
55771;DHT22;41687;-33.234;-60.334;2023-07-20T00:40:18;8.90;93.30
55771;DHT22;41687;-33.234;-60.334;2023-07-20T00:42:46;8.90;93.20
55771;DHT22;41687;-33.234;-60.334;2023-07-20T00:45:14;8.80;93.50
55771;DHT22;41687;-33.234;-60.334;2023-07-20T00:47:42;8.80;93.50
55771;DHT22;41687;-33.234;-60.334;2023-07-20T00:50:10;8.80;93.80
55771;DHT22;41687;-33.234;-60.334;2023-07-20T00:52:37;8.80;93.70
55771;DHT22;41687;-33.234;-60.334;2023-07-20T00:55:09;8.80;93.70
55771;DHT22;41687;-33.234;-60.334;2023-07-20T00:57:37;8.80;93.90
55771;DHT22;41687;-33.234;-60.334;2023-07-20T01:00:07;8.80;94.00
55771;DHT22;41687;-33.234;-60.334;2023-07-20T01:02:35;8.80;93.80
55771;DHT22;41687;-33.234;-60.334;2023-07-20T01:05:04;8.70;93.90
55771;DHT22;41687;-33.234;-60.334;2023-07-20T01:08:21;8.80;94.10
55771;DHT22;41687;-33.234;-60.334;2023-07-20T01:11:00;8.80;94.10
55771;DHT22;41687;-33.234;-60.334;2023-07-20T01:13:20;8.80;94.30
55771;DHT22;41687;-33.234;-60.334;2023-07-20T01:15:57;8.80;94.10
55771;DHT22;41687;-33.234;-60.334;2023-07-20T01:18:28;8.80;94.10
55771;DHT22;41687;-33.234;-60.334;2023-07-20T01:21:08;8.70;93.90
55771;DHT22;41687;-33.234;-60.334;2023-07-20T01:24:01;8.80;93.80
55771;DHT22;41687;-33.234;-60.334;2023-07-20T01:31:47;8.80;93.70
55771;DHT22;41687;-33.234;-60.334;2023-07-20T01:34:18;8.70;93.40
55771;DHT22;41687;-33.234;-60.334;2023-07-20T01:36:46;8.60;93.70
55771;DHT22;41687;-33.234;-60.334;2023-07-20T01:39:16;8.70;93.70
55771;DHT22;41687;-33.234;-60.334;2023-07-20T01:41:45;8.60;93.90
55771;DHT22;41687;-33.234;-60.334;2023-07-20T01:44:13;8.60;93.70
55771;DHT22;41687;-33.234;-60.334;2023-07-20T01:46:41;8.50;94.20
55771;DHT22;41687;-33.234;-60.334;2023-07-20T01:49:08;8.50;94.50
55771;DHT22;41687;-33.234;-60.334;2023-07-20T01:51:36;8.40;94.50
55771;DHT22;41687;-33.234;-60.334;2023-07-20T01:54:04;8.50;94.70
55771;DHT22;41687;-33.234;-60.334;2023-07-20T01:56:32;8.40;95.10
55771;DHT22;41687;-33.234;-60.334;2023-07-20T01:58:59;8.40;95.20
55771;DHT22;41687;-33.234;-60.334;2023-07-20T02:01:27;8.50;95.30
55771;DHT22;41687;-33.234;-60.334;2023-07-20T02:03:59;8.40;95.40
55771;DHT22;41687;-33.234;-60.334;2023-07-20T02:06:27;8.40;95.60
55771;DHT22;41687;-33.234;-60.334;2023-07-20T02:08:55;8.40;95.50
55771;DHT22;41687;-33.234;-60.334;2023-07-20T02:11:23;8.40;95.50
55771;DHT22;41687;-33.234;-60.334;2023-07-20T02:13:50;8.30;95.50
55771;DHT22;41687;-33.234;-60.334;2023-07-20T02:16:18;8.30;95.60
55771;DHT22;41687;-33.234;-60.334;2023-07-20T02:18:47;8.30;95.90
55771;DHT22;41687;-33.234;-60.334;2023-07-20T02:21:14;8.10;96.20
55771;DHT22;41687;-33.234;-60.334;2023-07-20T02:23:42;8.30;96.10
55771;DHT22;41687;-33.234;-60.334;2023-07-20T02:26:10;8.20;96.20
55771;DHT22;41687;-33.234;-60.334;2023-07-20T02:28:38;8.20;96.20
55771;DHT22;41687;-33.234;-60.334;2023-07-20T02:31:05;8.10;96.50
55771;DHT22;41687;-33.234;-60.334;2023-07-20T02:33:33;8.10;96.60
55771;DHT22;41687;-33.234;-60.334;2023-07-20T02:36:00;8.00;96.70
55771;DHT22;41687;-33.234;-60.334;2023-07-20T02:38:28;8.10;96.60
55771;DHT22;41687;-33.234;-60.334;2023-07-20T02:40:56;8.10;96.60
55771;DHT22;41687;-33.234;-60.334;2023-07-20T02:43:24;8.10;96.60
55771;DHT22;41687;-33.234;-60.334;2023-07-20T02:45:51;8.00;96.90
55771;DHT22;41687;-33.234;-60.334;2023-07-20T02:48:19;7.90;97.10
55771;DHT22;41687;-33.234;-60.334;2023-07-20T02:50:48;8.00;97.00
55771;DHT22;41687;-33.234;-60.334;2023-07-20T02:53:16;8.00;97.20
55771;DHT22;41687;-33.234;-60.334;2023-07-20T02:55:43;8.00;97.10
55771;DHT22;41687;-33.234;-60.334;2023-07-20T02:58:11;7.90;97.10
55771;DHT22;41687;-33.234;-60.334;2023-07-20T03:00:39;8.00;97.00
55771;DHT22;41687;-33.234;-60.334;2023-07-20T03:03:07;8.00;97.10
55771;DHT22;41687;-33.234;-60.334;2023-07-20T03:05:37;7.90;97.20
55771;DHT22;41687;-33.234;-60.334;2023-07-20T03:08:08;7.90;97.30
55771;DHT22;41687;-33.234;-60.334;2023-07-20T03:10:42;7.90;97.70
55771;DHT22;41687;-33.234;-60.334;2023-07-20T03:13:10;7.90;97.90
55771;DHT22;41687;-33.234;-60.334;2023-07-20T03:15:38;7.80;98.30
55771;DHT22;41687;-33.234;-60.334;2023-07-20T03:18:06;7.80;98.30
55771;DHT22;41687;-33.234;-60.334;2023-07-20T03:20:34;7.80;98.60
55771;DHT22;41687;-33.234;-60.334;2023-07-20T03:23:03;7.70;98.60
55771;DHT22;41687;-33.234;-60.334;2023-07-20T03:25:30;7.70;98.90
55771;DHT22;41687;-33.234;-60.334;2023-07-20T03:27:58;7.60;99.00
55771;DHT22;41687;-33.234;-60.334;2023-07-20T03:30:26;7.60;99.40
55771;DHT22;41687;-33.234;-60.334;2023-07-20T03:32:54;7.60;99.30
55771;DHT22;41687;-33.234;-60.334;2023-07-20T03:35:22;7.60;99.50
55771;DHT22;41687;-33.234;-60.334;2023-07-20T03:37:50;7.70;99.40
55771;DHT22;41687;-33.234;-60.334;2023-07-20T03:40:18;7.60;99.50
55771;DHT22;41687;-33.234;-60.334;2023-07-20T03:42:46;7.60;99.70
55771;DHT22;41687;-33.234;-60.334;2023-07-20T03:45:13;7.60;99.90
55771;DHT22;41687;-33.234;-60.334;2023-07-20T03:47:41;7.60;99.90
55771;DHT22;41687;-33.234;-60.334;2023-07-20T03:50:09;7.60;99.90
55771;DHT22;41687;-33.234;-60.334;2023-07-20T03:52:37;7.60;99.90
55771;DHT22;41687;-33.234;-60.334;2023-07-20T03:55:05;7.50;99.90
55771;DHT22;41687;-33.234;-60.334;2023-07-20T03:57:33;7.50;99.90
55771;DHT22;41687;-33.234;-60.334;2023-07-20T04:00:00;7.50;99.90
55771;DHT22;41687;-33.234;-60.334;2023-07-20T04:02:39;7.40;99.90
55771;DHT22;41687;-33.234;-60.334;2023-07-20T04:05:07;7.40;99.90
55771;DHT22;41687;-33.234;-60.334;2023-07-20T04:07:35;7.50;99.90
55771;DHT22;41687;-33.234;-60.334;2023-07-20T04:10:03;7.50;99.90
55771;DHT22;41687;-33.234;-60.334;2023-07-20T04:12:31;7.50;99.90
55771;DHT22;41687;-33.234;-60.334;2023-07-20T04:14:59;7.40;99.90
55771;DHT22;41687;-33.234;-60.334;2023-07-20T04:17:28;7.40;99.90
55771;DHT22;41687;-33.234;-60.334;2023-07-20T04:19:56;7.40;99.90
55771;DHT22;41687;-33.234;-60.334;2023-07-20T04:22:24;7.40;99.90
55771;DHT22;41687;-33.234;-60.334;2023-07-20T04:24:51;7.40;99.90
55771;DHT22;41687;-33.234;-60.334;2023-07-20T04:27:18;7.40;99.90
55771;DHT22;41687;-33.234;-60.334;2023-07-20T04:29:46;7.30;99.90
55771;DHT22;41687;-33.234;-60.334;2023-07-20T04:32:14;7.30;99.90
55771;DHT22;41687;-33.234;-60.334;2023-07-20T04:34:42;7.30;99.90
55771;DHT22;41687;-33.234;-60.334;2023-07-20T04:37:10;7.30;99.90
55771;DHT22;41687;-33.234;-60.334;2023-07-20T04:39:38;7.30;99.90
55771;DHT22;41687;-33.234;-60.334;2023-07-20T04:42:10;7.20;99.90
55771;DHT22;41687;-33.234;-60.334;2023-07-20T04:44:38;7.20;99.90
55771;DHT22;41687;-33.234;-60.334;2023-07-20T04:47:07;7.20;99.90
55771;DHT22;41687;-33.234;-60.334;2023-07-20T04:49:38;7.20;99.90
55771;DHT22;41687;-33.234;-60.334;2023-07-20T04:52:06;7.20;99.90
55771;DHT22;41687;-33.234;-60.334;2023-07-20T04:54:34;7.10;99.90
55771;DHT22;41687;-33.234;-60.334;2023-07-20T04:57:02;7.10;99.90
55771;DHT22;41687;-33.234;-60.334;2023-07-20T04:59:30;7.10;99.90
55771;DHT22;41687;-33.234;-60.334;2023-07-20T05:02:00;7.10;99.90
55771;DHT22;41687;-33.234;-60.334;2023-07-20T05:04:28;7.10;99.90
55771;DHT22;41687;-33.234;-60.334;2023-07-20T05:06:56;7.10;99.90
55771;DHT22;41687;-33.234;-60.334;2023-07-20T05:09:24;7.20;99.90
55771;DHT22;41687;-33.234;-60.334;2023-07-20T05:11:51;7.20;99.90
55771;DHT22;41687;-33.234;-60.334;2023-07-20T05:14:19;7.10;99.90
55771;DHT22;41687;-33.234;-60.334;2023-07-20T05:16:49;7.20;99.90
55771;DHT22;41687;-33.234;-60.334;2023-07-20T05:19:17;7.10;99.90
55771;DHT22;41687;-33.234;-60.334;2023-07-20T05:21:44;7.10;99.90
55771;DHT22;41687;-33.234;-60.334;2023-07-20T05:24:12;7.00;99.90
55771;DHT22;41687;-33.234;-60.334;2023-07-20T05:26:40;7.10;99.90
55771;DHT22;41687;-33.234;-60.334;2023-07-20T05:29:08;7.00;99.90
55771;DHT22;41687;-33.234;-60.334;2023-07-20T05:31:36;6.90;99.90
55771;DHT22;41687;-33.234;-60.334;2023-07-20T05:34:04;6.90;99.90
55771;DHT22;41687;-33.234;-60.334;2023-07-20T05:36:31;6.90;99.90
55771;DHT22;41687;-33.234;-60.334;2023-07-20T05:38:59;6.90;99.90
55771;DHT22;41687;-33.234;-60.334;2023-07-20T05:41:26;6.80;99.90
55771;DHT22;41687;-33.234;-60.334;2023-07-20T05:43:54;6.80;99.90
55771;DHT22;41687;-33.234;-60.334;2023-07-20T05:46:22;6.80;99.90
55771;DHT22;41687;-33.234;-60.334;2023-07-20T05:48:51;6.70;99.90
55771;DHT22;41687;-33.234;-60.334;2023-07-20T05:51:19;6.80;99.90
55771;DHT22;41687;-33.234;-60.334;2023-07-20T05:53:46;6.80;99.90
55771;DHT22;41687;-33.234;-60.334;2023-07-20T05:56:14;6.80;99.90
55771;DHT22;41687;-33.234;-60.334;2023-07-20T05:58:42;6.80;99.90
55771;DHT22;41687;-33.234;-60.334;2023-07-20T06:01:10;6.80;99.90
55771;DHT22;41687;-33.234;-60.334;2023-07-20T06:03:38;6.80;99.90
55771;DHT22;41687;-33.234;-60.334;2023-07-20T06:06:06;6.80;99.90
55771;DHT22;41687;-33.234;-60.334;2023-07-20T06:08:36;6.80;99.90
55771;DHT22;41687;-33.234;-60.334;2023-07-20T06:11:04;6.90;99.90
55771;DHT22;41687;-33.234;-60.334;2023-07-20T06:13:31;6.90;99.90
55771;DHT22;41687;-33.234;-60.334;2023-07-20T06:15:59;6.90;99.90
55771;DHT22;41687;-33.234;-60.334;2023-07-20T06:18:27;6.80;99.90
55771;DHT22;41687;-33.234;-60.334;2023-07-20T06:20:54;6.80;99.90
55771;DHT22;41687;-33.234;-60.334;2023-07-20T06:23:22;6.80;99.90
55771;DHT22;41687;-33.234;-60.334;2023-07-20T06:25:50;6.90;99.90
55771;DHT22;41687;-33.234;-60.334;2023-07-20T06:28:18;6.80;99.90
55771;DHT22;41687;-33.234;-60.334;2023-07-20T06:30:45;6.80;99.90
55771;DHT22;41687;-33.234;-60.334;2023-07-20T06:33:13;6.70;99.90
55771;DHT22;41687;-33.234;-60.334;2023-07-20T06:35:43;6.70;99.90
55771;DHT22;41687;-33.234;-60.334;2023-07-20T06:38:11;6.80;99.90
55771;DHT22;41687;-33.234;-60.334;2023-07-20T06:40:39;6.80;99.90
55771;DHT22;41687;-33.234;-60.334;2023-07-20T06:43:06;6.80;99.90
55771;DHT22;41687;-33.234;-60.334;2023-07-20T06:45:34;6.70;99.90
55771;DHT22;41687;-33.234;-60.334;2023-07-20T06:48:02;6.70;99.90
55771;DHT22;41687;-33.234;-60.334;2023-07-20T06:50:30;6.80;99.90
55771;DHT22;41687;-33.234;-60.334;2023-07-20T06:52:58;6.80;99.90
55771;DHT22;41687;-33.234;-60.334;2023-07-20T06:55:26;6.80;99.90
55771;DHT22;41687;-33.234;-60.334;2023-07-20T06:57:54;6.80;99.90
55771;DHT22;41687;-33.234;-60.334;2023-07-20T07:00:22;6.80;99.90
55771;DHT22;41687;-33.234;-60.334;2023-07-20T07:02:50;6.80;99.90
55771;DHT22;41687;-33.234;-60.334;2023-07-20T07:05:18;6.70;99.90
55771;DHT22;41687;-33.234;-60.334;2023-07-20T07:07:46;6.80;99.90
55771;DHT22;41687;-33.234;-60.334;2023-07-20T07:10:13;6.70;99.90
55771;DHT22;41687;-33.234;-60.334;2023-07-20T07:12:41;6.70;99.90
55771;DHT22;41687;-33.234;-60.334;2023-07-20T07:15:09;6.80;99.90
55771;DHT22;41687;-33.234;-60.334;2023-07-20T07:17:38;6.70;99.90
55771;DHT22;41687;-33.234;-60.334;2023-07-20T07:20:06;6.70;99.90
55771;DHT22;41687;-33.234;-60.334;2023-07-20T07:22:34;6.70;99.90
55771;DHT22;41687;-33.234;-60.334;2023-07-20T07:25:02;6.80;99.90
55771;DHT22;41687;-33.234;-60.334;2023-07-20T07:27:30;6.70;99.90
55771;DHT22;41687;-33.234;-60.334;2023-07-20T07:29:58;6.80;99.90
55771;DHT22;41687;-33.234;-60.334;2023-07-20T07:32:26;6.80;99.90
55771;DHT22;41687;-33.234;-60.334;2023-07-20T07:34:53;6.80;99.90
55771;DHT22;41687;-33.234;-60.334;2023-07-20T07:37:22;6.80;99.90
55771;DHT22;41687;-33.234;-60.334;2023-07-20T07:39:50;6.90;99.90
55771;DHT22;41687;-33.234;-60.334;2023-07-20T07:42:18;6.80;99.90
55771;DHT22;41687;-33.234;-60.334;2023-07-20T07:44:48;6.80;99.90
55771;DHT22;41687;-33.234;-60.334;2023-07-20T07:47:16;6.80;99.90
55771;DHT22;41687;-33.234;-60.334;2023-07-20T07:49:44;6.80;99.90
55771;DHT22;41687;-33.234;-60.334;2023-07-20T07:52:11;6.70;99.90
55771;DHT22;41687;-33.234;-60.334;2023-07-20T07:54:41;6.70;99.90
55771;DHT22;41687;-33.234;-60.334;2023-07-20T07:57:08;6.70;99.90
55771;DHT22;41687;-33.234;-60.334;2023-07-20T07:59:36;6.60;99.90
55771;DHT22;41687;-33.234;-60.334;2023-07-20T08:02:07;6.60;99.90
55771;DHT22;41687;-33.234;-60.334;2023-07-20T08:04:35;6.60;99.90
55771;DHT22;41687;-33.234;-60.334;2023-07-20T08:07:04;6.60;99.90
55771;DHT22;41687;-33.234;-60.334;2023-07-20T08:09:32;6.60;99.90
55771;DHT22;41687;-33.234;-60.334;2023-07-20T08:12:00;6.50;99.90
55771;DHT22;41687;-33.234;-60.334;2023-07-20T08:14:28;6.50;99.90
55771;DHT22;41687;-33.234;-60.334;2023-07-20T08:16:55;6.40;99.90
55771;DHT22;41687;-33.234;-60.334;2023-07-20T08:19:24;6.40;99.90
55771;DHT22;41687;-33.234;-60.334;2023-07-20T08:21:51;6.30;99.90
55771;DHT22;41687;-33.234;-60.334;2023-07-20T08:24:19;6.40;99.90
55771;DHT22;41687;-33.234;-60.334;2023-07-20T08:26:46;6.20;99.90
55771;DHT22;41687;-33.234;-60.334;2023-07-20T08:29:14;6.30;99.90
55771;DHT22;41687;-33.234;-60.334;2023-07-20T08:31:42;6.30;99.90
55771;DHT22;41687;-33.234;-60.334;2023-07-20T08:34:10;6.30;99.90
55771;DHT22;41687;-33.234;-60.334;2023-07-20T08:36:37;6.20;99.90
55771;DHT22;41687;-33.234;-60.334;2023-07-20T08:39:06;6.20;99.90
55771;DHT22;41687;-33.234;-60.334;2023-07-20T08:41:36;6.20;99.90
55771;DHT22;41687;-33.234;-60.334;2023-07-20T08:44:04;6.10;99.90
55771;DHT22;41687;-33.234;-60.334;2023-07-20T08:46:32;6.10;99.90
55771;DHT22;41687;-33.234;-60.334;2023-07-20T08:49:00;6.10;99.90
55771;DHT22;41687;-33.234;-60.334;2023-07-20T08:51:30;6.10;99.90
55771;DHT22;41687;-33.234;-60.334;2023-07-20T08:53:59;6.30;99.90
55771;DHT22;41687;-33.234;-60.334;2023-07-20T08:56:27;6.40;99.90
55771;DHT22;41687;-33.234;-60.334;2023-07-20T08:58:55;6.40;99.90
55771;DHT22;41687;-33.234;-60.334;2023-07-20T09:01:24;6.50;99.90
55771;DHT22;41687;-33.234;-60.334;2023-07-20T09:03:53;6.50;99.90
55771;DHT22;41687;-33.234;-60.334;2023-07-20T09:06:21;6.40;99.90
55771;DHT22;41687;-33.234;-60.334;2023-07-20T09:08:49;6.50;99.90
55771;DHT22;41687;-33.234;-60.334;2023-07-20T09:11:16;6.50;99.90
55771;DHT22;41687;-33.234;-60.334;2023-07-20T09:13:44;6.40;99.90
55771;DHT22;41687;-33.234;-60.334;2023-07-20T09:16:16;6.40;99.90
55771;DHT22;41687;-33.234;-60.334;2023-07-20T09:18:44;6.50;99.90
55771;DHT22;41687;-33.234;-60.334;2023-07-20T09:21:11;6.50;99.90
55771;DHT22;41687;-33.234;-60.334;2023-07-20T09:23:39;6.40;99.90
55771;DHT22;41687;-33.234;-60.334;2023-07-20T09:26:11;6.30;99.90
55771;DHT22;41687;-33.234;-60.334;2023-07-20T09:28:44;6.40;99.90
55771;DHT22;41687;-33.234;-60.334;2023-07-20T09:31:19;6.30;99.90
55771;DHT22;41687;-33.234;-60.334;2023-07-20T09:33:48;6.30;99.90
55771;DHT22;41687;-33.234;-60.334;2023-07-20T09:36:16;6.20;99.90
55771;DHT22;41687;-33.234;-60.334;2023-07-20T09:38:44;6.30;99.90
55771;DHT22;41687;-33.234;-60.334;2023-07-20T09:41:15;6.40;99.90
55771;DHT22;41687;-33.234;-60.334;2023-07-20T09:43:43;6.40;99.90
55771;DHT22;41687;-33.234;-60.334;2023-07-20T09:46:11;6.50;99.90
55771;DHT22;41687;-33.234;-60.334;2023-07-20T09:48:39;6.50;99.90
55771;DHT22;41687;-33.234;-60.334;2023-07-20T09:51:07;6.50;99.90
55771;DHT22;41687;-33.234;-60.334;2023-07-20T09:53:36;6.50;99.90
55771;DHT22;41687;-33.234;-60.334;2023-07-20T09:56:05;6.50;99.90
55771;DHT22;41687;-33.234;-60.334;2023-07-20T09:58:33;6.50;99.90
55771;DHT22;41687;-33.234;-60.334;2023-07-20T10:01:03;6.40;99.90
55771;DHT22;41687;-33.234;-60.334;2023-07-20T10:03:37;6.50;99.90
55771;DHT22;41687;-33.234;-60.334;2023-07-20T10:06:08;6.50;99.90
55771;DHT22;41687;-33.234;-60.334;2023-07-20T10:08:39;6.40;99.90
55771;DHT22;41687;-33.234;-60.334;2023-07-20T10:11:08;6.50;99.90
55771;DHT22;41687;-33.234;-60.334;2023-07-20T10:13:39;6.50;99.90
55771;DHT22;41687;-33.234;-60.334;2023-07-20T10:16:14;6.60;99.90
55771;DHT22;41687;-33.234;-60.334;2023-07-20T10:18:55;6.60;99.90
55771;DHT22;41687;-33.234;-60.334;2023-07-20T10:21:26;6.50;99.90
55771;DHT22;41687;-33.234;-60.334;2023-07-20T10:23:57;6.50;99.90
55771;DHT22;41687;-33.234;-60.334;2023-07-20T10:26:27;6.50;99.90
55771;DHT22;41687;-33.234;-60.334;2023-07-20T10:28:54;6.50;99.90
55771;DHT22;41687;-33.234;-60.334;2023-07-20T10:31:23;6.50;99.90
55771;DHT22;41687;-33.234;-60.334;2023-07-20T10:33:51;6.50;99.90
55771;DHT22;41687;-33.234;-60.334;2023-07-20T10:36:28;6.60;99.90
55771;DHT22;41687;-33.234;-60.334;2023-07-20T10:38:57;6.50;99.90
55771;DHT22;41687;-33.234;-60.334;2023-07-20T10:41:35;6.50;99.90
55771;DHT22;41687;-33.234;-60.334;2023-07-20T10:44:12;6.40;99.90
55771;DHT22;41687;-33.234;-60.334;2023-07-20T10:49:11;6.40;99.90
55771;DHT22;41687;-33.234;-60.334;2023-07-20T10:51:46;6.50;99.90
55771;DHT22;41687;-33.234;-60.334;2023-07-20T10:56:47;6.40;99.90
55771;DHT22;41687;-33.234;-60.334;2023-07-20T11:01:55;6.30;99.90
55771;DHT22;41687;-33.234;-60.334;2023-07-20T11:04:46;6.40;99.90
55771;DHT22;41687;-33.234;-60.334;2023-07-20T11:07:35;6.20;99.90
55771;DHT22;41687;-33.234;-60.334;2023-07-20T11:10:16;6.00;99.90
55771;DHT22;41687;-33.234;-60.334;2023-07-20T11:13:21;6.10;99.90
55771;DHT22;41687;-33.234;-60.334;2023-07-20T11:18:27;6.00;99.90
55771;DHT22;41687;-33.234;-60.334;2023-07-20T11:20:56;6.00;99.90
55771;DHT22;41687;-33.234;-60.334;2023-07-20T11:23:24;6.10;99.90
55771;DHT22;41687;-33.234;-60.334;2023-07-20T11:25:51;6.10;99.90
55771;DHT22;41687;-33.234;-60.334;2023-07-20T11:28:19;6.10;99.90
55771;DHT22;41687;-33.234;-60.334;2023-07-20T11:30:52;6.00;99.90
55771;DHT22;41687;-33.234;-60.334;2023-07-20T11:33:20;6.00;99.90
55771;DHT22;41687;-33.234;-60.334;2023-07-20T11:35:49;6.10;99.90
55771;DHT22;41687;-33.234;-60.334;2023-07-20T11:38:21;6.20;99.90
55771;DHT22;41687;-33.234;-60.334;2023-07-20T11:40:48;6.20;99.90
55771;DHT22;41687;-33.234;-60.334;2023-07-20T11:43:17;6.30;99.90
55771;DHT22;41687;-33.234;-60.334;2023-07-20T11:45:45;6.30;99.90
55771;DHT22;41687;-33.234;-60.334;2023-07-20T11:48:17;6.40;99.90
55771;DHT22;41687;-33.234;-60.334;2023-07-20T11:50:44;6.50;99.90
55771;DHT22;41687;-33.234;-60.334;2023-07-20T11:53:12;6.50;99.90
55771;DHT22;41687;-33.234;-60.334;2023-07-20T11:55:41;6.60;99.90
55771;DHT22;41687;-33.234;-60.334;2023-07-20T11:58:09;6.70;99.90
55771;DHT22;41687;-33.234;-60.334;2023-07-20T12:00:39;6.70;99.90
55771;DHT22;41687;-33.234;-60.334;2023-07-20T12:03:07;6.70;99.90
55771;DHT22;41687;-33.234;-60.334;2023-07-20T12:05:38;6.70;99.90
55771;DHT22;41687;-33.234;-60.334;2023-07-20T12:08:06;6.60;99.90
55771;DHT22;41687;-33.234;-60.334;2023-07-20T12:10:33;6.50;99.90
55771;DHT22;41687;-33.234;-60.334;2023-07-20T12:13:02;6.60;99.90
55771;DHT22;41687;-33.234;-60.334;2023-07-20T12:15:30;6.60;99.90
55771;DHT22;41687;-33.234;-60.334;2023-07-20T12:18:00;6.50;99.90
55771;DHT22;41687;-33.234;-60.334;2023-07-20T12:20:36;6.60;99.90
55771;DHT22;41687;-33.234;-60.334;2023-07-20T12:23:09;6.70;99.90
55771;DHT22;41687;-33.234;-60.334;2023-07-20T12:25:46;6.70;99.90
55771;DHT22;41687;-33.234;-60.334;2023-07-20T12:28:16;6.70;99.90
55771;DHT22;41687;-33.234;-60.334;2023-07-20T12:30:45;6.80;99.90
55771;DHT22;41687;-33.234;-60.334;2023-07-20T12:33:13;6.90;99.90
55771;DHT22;41687;-33.234;-60.334;2023-07-20T12:35:45;6.90;99.90
55771;DHT22;41687;-33.234;-60.334;2023-07-20T12:38:13;6.90;99.90
55771;DHT22;41687;-33.234;-60.334;2023-07-20T12:40:40;6.90;99.90
55771;DHT22;41687;-33.234;-60.334;2023-07-20T12:43:08;6.90;99.90
55771;DHT22;41687;-33.234;-60.334;2023-07-20T12:45:36;6.90;99.90
55771;DHT22;41687;-33.234;-60.334;2023-07-20T12:48:04;7.00;99.90
55771;DHT22;41687;-33.234;-60.334;2023-07-20T12:50:31;7.20;99.90
55771;DHT22;41687;-33.234;-60.334;2023-07-20T12:52:59;7.20;99.90
55771;DHT22;41687;-33.234;-60.334;2023-07-20T12:55:27;7.30;99.90
55771;DHT22;41687;-33.234;-60.334;2023-07-20T12:57:54;7.40;99.90
55771;DHT22;41687;-33.234;-60.334;2023-07-20T13:00:23;7.50;99.90
55771;DHT22;41687;-33.234;-60.334;2023-07-20T13:02:50;7.30;99.90
55771;DHT22;41687;-33.234;-60.334;2023-07-20T13:05:17;7.20;99.90
55771;DHT22;41687;-33.234;-60.334;2023-07-20T13:07:45;7.10;99.90
55771;DHT22;41687;-33.234;-60.334;2023-07-20T13:10:14;7.10;99.90
55771;DHT22;41687;-33.234;-60.334;2023-07-20T13:12:41;7.00;99.90
55771;DHT22;41687;-33.234;-60.334;2023-07-20T13:15:10;6.90;99.90
55771;DHT22;41687;-33.234;-60.334;2023-07-20T13:17:39;6.90;99.90
55771;DHT22;41687;-33.234;-60.334;2023-07-20T13:20:08;7.00;99.90
55771;DHT22;41687;-33.234;-60.334;2023-07-20T13:22:38;7.20;99.90
55771;DHT22;41687;-33.234;-60.334;2023-07-20T13:25:09;7.70;99.90
55771;DHT22;41687;-33.234;-60.334;2023-07-20T13:27:37;8.00;99.90
55771;DHT22;41687;-33.234;-60.334;2023-07-20T13:30:05;8.10;99.90
55771;DHT22;41687;-33.234;-60.334;2023-07-20T13:32:39;8.00;99.90
55771;DHT22;41687;-33.234;-60.334;2023-07-20T13:35:07;8.60;99.90
55771;DHT22;41687;-33.234;-60.334;2023-07-20T13:37:35;9.00;99.90
55771;DHT22;41687;-33.234;-60.334;2023-07-20T13:40:02;8.90;99.90
55771;DHT22;41687;-33.234;-60.334;2023-07-20T13:42:33;8.80;99.90
55771;DHT22;41687;-33.234;-60.334;2023-07-20T13:45:01;9.00;99.90
55771;DHT22;41687;-33.234;-60.334;2023-07-20T13:47:28;8.80;99.90
55771;DHT22;41687;-33.234;-60.334;2023-07-20T13:49:55;8.90;99.90
55771;DHT22;41687;-33.234;-60.334;2023-07-20T13:52:23;8.70;99.90
55771;DHT22;41687;-33.234;-60.334;2023-07-20T13:54:51;8.70;99.90
55771;DHT22;41687;-33.234;-60.334;2023-07-20T13:57:19;8.50;99.90
55771;DHT22;41687;-33.234;-60.334;2023-07-20T13:59:46;8.70;99.90
55771;DHT22;41687;-33.234;-60.334;2023-07-20T14:02:17;8.80;99.90
55771;DHT22;41687;-33.234;-60.334;2023-07-20T14:04:46;8.90;99.90
55771;DHT22;41687;-33.234;-60.334;2023-07-20T14:07:15;8.90;99.90
55771;DHT22;41687;-33.234;-60.334;2023-07-20T14:09:43;8.90;99.90
55771;DHT22;41687;-33.234;-60.334;2023-07-20T14:12:11;9.10;99.90
55771;DHT22;41687;-33.234;-60.334;2023-07-20T14:14:41;9.10;99.90
55771;DHT22;41687;-33.234;-60.334;2023-07-20T14:17:08;9.10;99.90
55771;DHT22;41687;-33.234;-60.334;2023-07-20T14:19:37;9.30;99.90
55771;DHT22;41687;-33.234;-60.334;2023-07-20T14:22:05;9.30;99.90
55771;DHT22;41687;-33.234;-60.334;2023-07-20T14:24:34;9.40;99.90
55771;DHT22;41687;-33.234;-60.334;2023-07-20T14:27:01;9.50;99.90
55771;DHT22;41687;-33.234;-60.334;2023-07-20T14:29:29;9.60;99.90
55771;DHT22;41687;-33.234;-60.334;2023-07-20T14:31:58;9.90;99.90
55771;DHT22;41687;-33.234;-60.334;2023-07-20T14:34:26;10.00;99.90
55771;DHT22;41687;-33.234;-60.334;2023-07-20T14:36:53;9.90;99.90
55771;DHT22;41687;-33.234;-60.334;2023-07-20T14:39:22;9.90;99.90
55771;DHT22;41687;-33.234;-60.334;2023-07-20T14:41:50;9.90;99.90
55771;DHT22;41687;-33.234;-60.334;2023-07-20T14:44:19;10.10;99.90
55771;DHT22;41687;-33.234;-60.334;2023-07-20T14:46:47;10.30;99.90
55771;DHT22;41687;-33.234;-60.334;2023-07-20T14:49:16;10.30;99.90
55771;DHT22;41687;-33.234;-60.334;2023-07-20T14:51:45;10.20;99.90
55771;DHT22;41687;-33.234;-60.334;2023-07-20T14:54:14;10.20;99.90
55771;DHT22;41687;-33.234;-60.334;2023-07-20T14:56:50;10.30;99.90
55771;DHT22;41687;-33.234;-60.334;2023-07-20T14:59:21;10.30;99.90
55771;DHT22;41687;-33.234;-60.334;2023-07-20T15:01:48;10.30;99.90
55771;DHT22;41687;-33.234;-60.334;2023-07-20T15:04:16;10.20;99.90
55771;DHT22;41687;-33.234;-60.334;2023-07-20T15:06:45;10.30;99.90
55771;DHT22;41687;-33.234;-60.334;2023-07-20T15:09:13;10.40;99.90
55771;DHT22;41687;-33.234;-60.334;2023-07-20T15:11:40;10.40;99.90
55771;DHT22;41687;-33.234;-60.334;2023-07-20T15:14:08;10.50;99.90
55771;DHT22;41687;-33.234;-60.334;2023-07-20T15:16:36;10.60;99.90
55771;DHT22;41687;-33.234;-60.334;2023-07-20T15:19:04;10.80;99.90
55771;DHT22;41687;-33.234;-60.334;2023-07-20T15:21:31;10.80;99.90
55771;DHT22;41687;-33.234;-60.334;2023-07-20T15:24:00;10.80;99.90
55771;DHT22;41687;-33.234;-60.334;2023-07-20T15:26:27;10.80;99.90